Garrison, Nebraska
Current Conditions -  °F | °C
As of 3:35 PM on Thursday 23 Oct 2014 (Local Time) from KOLU Reporting Station
Clear Clear  
Wind Chill: 70°   Ceiling: Unl
Heat Index: 70°   Visibility: 10mi
Dew Point: 50°   Wind: 5mph
Humidity: 49%   Direction: 150°SSE
Pressure: 30.02"   Gusts: NA
Location:  41.1947°N, 97.127°W
Report Text: KOLU 232035Z AUTO 15004KT 10SM CLR 21/10 A3002 RMK AO1
Loading
Personal Weather Stations






























Interactive Weather Map
Tropical Storm Tracking
New forecast layout! Learn more

10-Day Weather Forecast

Advertisements
Track Severe Weather on mobile